Time;durP1;ratioP1;P1;durP2;ratioP2;P2;SDS_P1;SDS_P2;PMS_P1;PMS_P2;Temp;Humidity;BMP_temperature;BMP_pressure;BME280_temperature;BME280_humidity;BME280_pressure;Samples;Min_cycle;Max_cycle;Signal;HPM_P1;HPM_P2
2022/09/13 00:01:33;;;;;;;1.25;0.82;;;26.70;53.70;;;;;;5009855;28;20493;-67
2022/09/13 00:03:59;;;;;;;1.00;1.00;;;26.70;54.00;;;;;;5009741;28;20045;-67
2022/09/13 00:06:25;;;;;;;2.38;1.10;;;26.80;53.10;;;;;;4993393;28;20045;-67
2022/09/13 00:08:53;;;;;;;0.80;0.80;;;26.70;53.20;;;;;;5009388;28;20073;-67
2022/09/13 00:11:29;;;;;;;1.40;1.30;;;26.70;53.80;;;;;;4993031;28;20038;-67
2022/09/13 00:13:56;;;;;;;0.90;0.90;;;26.70;53.60;;;;;;5011848;28;20042;-67
2022/09/13 00:16:24;;;;;;;1.33;1.00;;;26.70;53.90;;;;;;5012614;28;20542;-67
2022/09/13 00:18:52;;;;;;;1.13;1.02;;;26.80;53.70;;;;;;5012605;28;20038;-67
2022/09/13 00:21:20;;;;;;;0.98;0.88;;;26.70;53.70;;;;;;5012465;28;20034;-68
2022/09/13 00:23:49;;;;;;;2.55;1.20;;;26.70;53.80;;;;;;5011079;28;20383;-67
2022/09/13 00:26:19;;;;;;;0.80;0.80;;;26.70;53.80;;;;;;5012287;28;20079;-67
2022/09/13 00:28:50;;;;;;;0.90;0.90;;;26.70;53.70;;;;;;5025692;28;20041;-67
2022/09/13 00:31:16;;;;;;;0.88;0.88;;;26.70;53.20;;;;;;5020396;28;20042;-67
2022/09/13 00:33:43;;;;;;;1.00;0.90;;;26.80;53.00;;;;;;5011922;28;20042;-68
2022/09/13 00:36:10;;;;;;;1.10;0.80;;;26.70;53.70;;;;;;5011861;28;20387;-67
2022/09/13 00:38:38;;;;;;;0.80;0.80;;;26.60;53.90;;;;;;5011815;28;20041;-67
2022/09/13 00:41:06;;;;;;;1.00;0.90;;;26.70;53.80;;;;;;5011806;28;20043;-67
2022/09/13 00:43:50;;;;;;;1.08;1.05;;;26.60;54.00;;;;;;5011707;28;20044;-68
2022/09/13 00:46:40;;;;;;;1.08;1.08;;;26.70;53.40;;;;;;5011559;28;20038;-67
2022/09/13 00:49:21;;;;;;;1.27;1.15;;;26.60;54.10;;;;;;5011432;28;20049;-67
2022/09/13 00:51:57;;;;;;;1.10;1.10;;;26.60;54.20;;;;;;5011887;28;20088;-68
2022/09/13 00:54:27;;;;;;;1.20;1.15;;;26.60;54.20;;;;;;5009675;28;20622;-67
2022/09/13 00:56:58;;;;;;;2.15;1.95;;;26.50;54.10;;;;;;5012252;28;20037;-67
2022/09/13 00:59:29;;;;;;;0.95;0.95;;;26.60;53.60;;;;;;5011911;28;20104;-67
2022/09/13 01:01:56;;;;;;;1.77;1.05;;;26.50;54.20;;;;;;5010471;28;20034;-67
2022/09/13 01:04:27;;;;;;;0.95;0.95;;;26.50;54.30;;;;;;5011913;28;20033;-67
2022/09/13 01:06:57;;;;;;;1.25;1.15;;;26.40;54.30;;;;;;5011871;28;20057;-67
2022/09/13 01:09:24;;;;;;;1.13;1.02;;;26.40;54.30;;;;;;5011711;28;20030;-67
2022/09/13 01:12:09;;;;;;;1.10;1.00;;;26.40;54.40;;;;;;5010919;28;20036;-66
2022/09/13 01:14:35;;;;;;;1.10;1.00;;;26.40;54.40;;;;;;5011742;28;20046;-67
2022/09/13 01:17:02;;;;;;;1.40;1.30;;;26.40;54.70;;;;;;5011314;28;20042;-67
2022/09/13 01:19:28;;;;;;;0.95;0.95;;;26.60;54.60;;;;;;5011579;28;20109;-68
2022/09/13 01:22:05;;;;;;;0.85;0.85;;;26.40;54.70;;;;;;5009164;28;20111;-67
2022/09/13 01:24:31;;;;;;;0.90;0.90;;;26.50;54.60;;;;;;5010062;28;20550;-67
2022/09/13 01:27:15;;;;;;;1.13;1.02;;;26.40;53.40;;;;;;5011815;28;20208;-67
2022/09/13 01:30:05;;;;;;;0.90;0.90;;;26.50;54.40;;;;;;5012182;28;20037;-67
2022/09/13 01:32:50;;;;;;;0.88;0.88;;;26.60;54.70;;;;;;5011338;28;20038;-67
2022/09/13 01:35:41;;;;;;;0.90;0.90;;;26.60;54.70;;;;;;5024580;28;20033;-67
2022/09/13 01:38:26;;;;;;;1.20;1.00;;;26.50;54.70;;;;;;5031279;28;20104;-68
2022/09/13 01:41:10;;;;;;;1.10;1.10;;;26.50;54.70;;;;;;5031051;28;20049;-67
2022/09/13 01:43:54;;;;;;;0.80;0.80;;;26.60;54.70;;;;;;5030926;28;20026;-68
2022/09/13 01:46:46;;;;;;;1.17;1.10;;;26.50;54.60;;;;;;5026386;28;20309;-68
2022/09/13 01:49:28;;;;;;;0.98;0.98;;;26.60;54.80;;;;;;5010953;28;20117;-68
2022/09/13 01:52:08;;;;;;;1.00;0.95;;;26.60;54.70;;;;;;5009611;28;20080;-67
2022/09/13 01:54:56;;;;;;;1.08;1.08;;;26.70;54.50;;;;;;5010752;28;20045;-68
2022/09/13 01:57:22;;;;;;;1.10;1.00;;;26.70;54.60;;;;;;5010871;28;20045;-67
2022/09/13 01:59:50;;;;;;;1.58;1.23;;;26.60;54.60;;;;;;5010567;28;20054;-68
2022/09/13 02:02:55;;;;;;;1.25;1.15;;;26.60;54.20;;;;;;5009015;28;20112;-67
2022/09/13 02:05:48;;;;;;;1.05;1.05;;;26.80;54.60;;;;;;4968703;28;20385;-67
2022/09/13 02:08:23;;;;;;;1.05;1.05;;;26.70;54.70;;;;;;4968683;28;20537;-68
2022/09/13 02:10:59;;;;;;;1.00;1.00;;;26.80;54.50;;;;;;4968691;28;20431;-67
2022/09/13 02:13:28;;;;;;;1.80;1.10;;;26.70;54.60;;;;;;4968604;28;20038;-67
2022/09/13 02:16:05;;;;;;;1.02;1.02;;;26.90;54.50;;;;;;4968556;28;20055;-67
2022/09/13 02:18:40;;;;;;;1.10;1.10;;;26.80;54.30;;;;;;4969215;28;20062;-67
2022/09/13 02:21:22;;;;;;;0.80;0.80;;;26.80;54.30;;;;;;4969315;28;20047;-67
2022/09/13 02:23:57;;;;;;;1.55;1.10;;;26.80;54.30;;;;;;4984346;28;20042;-67
2022/09/13 02:26:24;;;;;;;1.23;1.05;;;26.70;54.20;;;;;;4985126;28;20034;-67
2022/09/13 02:28:53;;;;;;;1.15;1.10;;;26.80;54.10;;;;;;4957578;28;20093;-67
2022/09/13 02:31:29;;;;;;;1.38;1.27;;;26.90;54.10;;;;;;4973514;28;20031;-67
2022/09/13 02:34:02;;;;;;;1.30;1.20;;;26.80;54.30;;;;;;4992307;28;20034;-68
2022/09/13 02:36:29;;;;;;;;;;;26.90;54.20;;;;;;4992672;28;20074;-67
2022/09/13 02:39:01;;;;;;;4.32;1.08;;;26.90;53.80;;;;;;4991983;28;19920;-67
2022/09/13 02:41:48;;;;;;;1.13;1.03;;;26.80;54.30;;;;;;5007152;28;20041;-68
2022/09/13 02:44:55;;;;;;;1.23;1.00;;;26.90;54.40;;;;;;5026284;28;20038;-68
2022/09/13 02:47:45;;;;;;;1.10;1.00;;;26.80;54.40;;;;;;5013650;28;20128;-67
2022/09/13 02:50:30;;;;;;;1.15;1.05;;;26.80;54.20;;;;;;5013381;28;20041;-67
2022/09/13 02:53:06;;;;;;;0.95;0.95;;;26.80;54.40;;;;;;5013347;28;20092;-67
2022/09/13 02:55:44;;;;;;;1.17;1.08;;;26.70;54.30;;;;;;5013347;28;20050;-68
2022/09/13 02:58:27;;;;;;;1.15;1.10;;;26.70;54.40;;;;;;5013403;28;20033;-68
2022/09/13 03:00:54;;;;;;;1.25;1.10;;;26.70;54.00;;;;;;5013514;28;20141;-67
2022/09/13 03:03:20;;;;;;;2.38;1.33;;;26.70;54.50;;;;;;5013047;28;20112;-67
2022/09/13 03:05:46;;;;;;;1.42;1.30;;;26.80;54.50;;;;;;5013347;28;20037;-68
2022/09/13 03:08:15;;;;;;;1.55;1.40;;;26.70;54.70;;;;;;5013013;28;20034;-67
2022/09/13 03:10:47;;;;;;;1.45;1.35;;;26.70;54.70;;;;;;5012959;28;20080;-68
2022/09/13 03:13:38;;;;;;;1.33;1.10;;;26.70;54.80;;;;;;5012593;28;20498;-67
2022/09/13 03:16:50;;;;;;;1.33;1.20;;;26.70;54.80;;;;;;5012974;28;20050;-68
2022/09/13 03:19:37;;;;;;;1.35;1.25;;;26.60;54.90;;;;;;5011371;28;20065;-67
2022/09/13 03:22:33;;;;;;;1.60;1.50;;;26.70;54.80;;;;;;5022563;28;20026;-67
2022/09/13 03:25:08;;;;;;;1.25;1.20;;;26.60;54.80;;;;;;5010370;28;20440;-67
2022/09/13 03:27:43;;;;;;;1.27;1.17;;;26.70;54.80;;;;;;5012664;28;20038;-67
2022/09/13 03:30:14;;;;;;;1.20;1.20;;;26.70;54.60;;;;;;5023677;28;20061;-67
2022/09/13 03:33:06;;;;;;;2.00;1.90;;;26.70;54.50;;;;;;5032706;28;20037;-68
2022/09/13 03:35:44;;;;;;;1.02;0.98;;;26.80;54.30;;;;;;5031706;28;20041;-68
2022/09/13 03:38:26;;;;;;;1.40;1.25;;;26.90;54.20;;;;;;5032700;28;20035;-67
2022/09/13 03:41:01;;;;;;;1.42;1.33;;;26.70;54.10;;;;;;5032928;28;20022;-67
2022/09/13 03:43:39;;;;;;;1.30;1.20;;;26.90;54.00;;;;;;5032819;28;20065;-66
2022/09/13 03:46:11;;;;;;;1.70;1.40;;;26.90;53.90;;;;;;5030316;28;20045;-67
2022/09/13 03:48:39;;;;;;;1.83;1.23;;;26.90;53.70;;;;;;5033115;28;20561;-67
2022/09/13 03:51:07;;;;;;;3.85;1.90;;;26.90;54.00;;;;;;5032738;28;20282;-67
2022/09/13 03:53:38;;;;;;;2.42;1.80;;;26.90;53.70;;;;;;5031475;28;20113;-67
2022/09/13 03:56:18;;;;;;;1.45;1.35;;;26.90;53.10;;;;;;5031077;28;20513;-67
2022/09/13 03:58:46;;;;;;;2.15;2.00;;;26.80;54.00;;;;;;5032537;28;20117;-68
2022/09/13 04:01:12;;;;;;;1.75;1.60;;;26.80;52.80;;;;;;5032619;28;20050;-68
2022/09/13 04:03:39;;;;;;;3.67;1.85;;;26.60;53.70;;;;;;5032522;28;20467;-69
2022/09/13 04:06:05;;;;;;;2.17;1.83;;;26.60;54.60;;;;;;5030183;28;20072;-68
2022/09/13 04:08:32;;;;;;;4.80;1.60;;;26.70;54.00;;;;;;5032517;28;20037;-68
2022/09/13 04:10:59;;;;;;;1.80;1.70;;;26.60;53.50;;;;;;5032256;28;20041;-68
2022/09/13 04:13:25;;;;;;;1.48;1.38;;;26.60;54.00;;;;;;5030689;28;20509;-67
2022/09/13 04:15:52;;;;;;;1.70;1.55;;;26.70;53.70;;;;;;5031171;28;20033;-67
2022/09/13 04:18:18;;;;;;;2.03;1.60;;;26.60;53.70;;;;;;5032483;28;20048;-72
2022/09/13 04:20:51;;;;;;;1.67;1.58;;;26.70;53.60;;;;;;5030403;28;20029;-74
2022/09/13 04:23:17;;;;;;;2.33;1.98;;;26.80;55.10;;;;;;5018441;28;20559;-73
2022/09/13 04:25:44;;;;;;;2.45;2.17;;;26.90;56.50;;;;;;5032208;28;20080;-72
2022/09/13 04:28:10;;;;;;;2.47;2.28;;;27.40;57.80;;;;;;5032233;28;20073;-73
2022/09/13 04:30:36;;;;;;;2.55;2.25;;;27.50;57.40;;;;;;5030757;28;20080;-73
2022/09/13 04:33:02;;;;;;;3.40;1.80;;;27.40;54.10;;;;;;5032206;28;20025;-73
2022/09/13 04:35:28;;;;;;;2.30;1.95;;;27.40;53.00;;;;;;5032259;28;20046;-72
2022/09/13 04:37:56;;;;;;;8.25;2.28;;;27.30;52.00;;;;;;5046350;28;20056;-72
2022/09/13 04:40:23;;;;;;;2.30;2.10;;;27.40;51.80;;;;;;5018273;28;20034;-71
2022/09/13 04:42:49;;;;;;;2.80;2.35;;;27.30;51.50;;;;;;5012128;28;20518;-72
2022/09/13 04:45:15;;;;;;;3.00;2.38;;;27.40;51.10;;;;;;5012428;28;20074;-72
2022/09/13 04:47:41;;;;;;;2.53;2.33;;;27.30;50.80;;;;;;5012798;28;20025;-72
2022/09/13 04:50:08;;;;;;;2.83;2.50;;;27.20;50.40;;;;;;5012222;28;20034;-72
2022/09/13 04:52:35;;;;;;;2.55;2.30;;;27.30;50.10;;;;;;5010852;28;20068;-72
2022/09/13 04:55:01;;;;;;;4.97;2.72;;;27.30;49.80;;;;;;5011712;28;20030;-72
2022/09/13 04:57:28;;;;;;;3.30;2.60;;;27.10;48.40;;;;;;5010782;28;20034;-72
2022/09/13 04:59:54;;;;;;;0.65;0.57;;;27.20;48.90;;;;;;5011592;28;20491;-73
2022/09/13 05:02:20;;;;;;;2.33;2.13;;;27.10;48.90;;;;;;5011457;28;20374;-73
2022/09/13 05:04:46;;;;;;;3.42;2.05;;;27.00;48.00;;;;;;5011101;28;20036;-73
2022/09/13 05:07:12;;;;;;;0.98;0.98;;;27.10;48.10;;;;;;5011484;28;20030;-72
2022/09/13 05:09:38;;;;;;;1.00;0.98;;;27.00;47.40;;;;;;5011189;28;20108;-73
2022/09/13 05:12:04;;;;;;;3.35;2.72;;;26.90;46.70;;;;;;5011605;28;20053;-73
2022/09/13 05:14:31;;;;;;;3.40;2.28;;;27.00;47.60;;;;;;5011607;28;20084;-72
2022/09/13 05:16:57;;;;;;;2.35;2.10;;;27.00;47.80;;;;;;5024417;28;20052;-72
2022/09/13 05:19:23;;;;;;;3.45;2.85;;;26.90;47.60;;;;;;5020531;28;20061;-73
2022/09/13 05:21:49;;;;;;;2.83;0.80;;;26.90;48.20;;;;;;5011388;28;20034;-74
2022/09/13 05:24:15;;;;;;;2.25;1.63;;;26.90;48.30;;;;;;5011098;28;20029;-74
2022/09/13 05:26:41;;;;;;;1.17;1.08;;;26.90;49.30;;;;;;5011498;28;20030;-73
2022/09/13 05:29:07;;;;;;;1.85;1.70;;;26.90;52.50;;;;;;5011343;28;20034;-68
2022/09/13 05:31:37;;;;;;;3.33;2.60;;;27.00;53.60;;;;;;5011078;28;20168;-68
2022/09/13 05:34:07;;;;;;;3.42;2.55;;;27.00;50.90;;;;;;5011504;28;20140;-67
2022/09/13 05:36:33;;;;;;;1.55;1.45;;;26.90;50.70;;;;;;5011552;28;20034;-67
2022/09/13 05:38:59;;;;;;;2.92;2.20;;;26.80;48.80;;;;;;5011274;28;20095;-68
2022/09/13 05:41:25;;;;;;;1.67;1.35;;;26.80;47.70;;;;;;5011435;28;20494;-69
2022/09/13 05:43:51;;;;;;;4.50;3.70;;;26.90;52.60;;;;;;5009905;28;20116;-69
2022/09/13 05:46:19;;;;;;;3.08;2.78;;;26.90;50.60;;;;;;5011121;28;20108;-69
2022/09/13 05:48:45;;;;;;;3.67;3.10;;;26.90;51.80;;;;;;5010643;28;20022;-71
2022/09/13 05:51:14;;;;;;;4.65;3.17;;;26.80;52.10;;;;;;5010728;28;20172;-68
2022/09/13 05:53:42;;;;;;;5.65;3.50;;;26.80;52.10;;;;;;5024562;28;20141;-69
2022/09/13 05:56:13;;;;;;;4.38;3.25;;;26.80;52.30;;;;;;5010590;28;20046;-70
2022/09/13 05:58:41;;;;;;;4.40;3.28;;;26.90;51.90;;;;;;5013828;28;20040;-71
2022/09/13 06:01:09;;;;;;;3.72;3.28;;;27.00;53.80;;;;;;5014444;28;20057;-76
2022/09/13 06:03:35;;;;;;;3.33;3.03;;;27.00;53.00;;;;;;5014191;28;20030;-74
2022/09/13 06:06:03;;;;;;;4.07;3.05;;;26.90;51.70;;;;;;5013048;28;20034;-71
2022/09/13 06:08:31;;;;;;;4.03;3.47;;;26.90;51.30;;;;;;5013414;28;20483;-69
2022/09/13 06:11:00;;;;;;;7.90;3.72;;;26.80;51.40;;;;;;5010750;28;20030;-68
2022/09/13 06:13:27;;;;;;;6.40;3.55;;;26.90;51.60;;;;;;5011944;28;20109;-70
2022/09/13 06:15:55;;;;;;;4.55;4.05;;;26.90;52.60;;;;;;5010256;28;20042;-70
2022/09/13 06:18:21;;;;;;;6.28;3.13;;;26.90;49.40;;;;;;5010666;28;20061;-67
2022/09/13 06:20:48;;;;;;;4.22;3.45;;;26.80;51.80;;;;;;5011628;28;20121;-67
2022/09/13 06:23:14;;;;;;;5.68;3.95;;;26.80;52.50;;;;;;5011182;28;20046;-68
2022/09/13 06:25:40;;;;;;;2.97;2.40;;;26.80;48.70;;;;;;5013185;28;20019;-70
2022/09/13 06:28:07;;;;;;;5.00;4.03;;;26.70;50.50;;;;;;5012061;28;20091;-69
2022/09/13 06:30:33;;;;;;;3.70;3.40;;;26.60;49.10;;;;;;5012111;28;20176;-70
2022/09/13 06:32:59;;;;;;;4.15;3.75;;;26.50;52.90;;;;;;5011907;28;20018;-73
2022/09/13 06:35:25;;;;;;;4.40;2.97;;;26.60;49.20;;;;;;5011293;28;20148;-69
2022/09/13 06:37:55;;;;;;;4.00;3.60;;;26.60;51.70;;;;;;5011400;28;20041;-73
2022/09/13 06:40:21;;;;;;;5.55;3.72;;;26.50;48.90;;;;;;5009780;28;20065;-71
2022/09/13 06:42:47;;;;;;;4.30;3.83;;;26.50;51.10;;;;;;5010865;28;20041;-70
2022/09/13 06:45:13;;;;;;;4.32;3.88;;;26.40;49.40;;;;;;5011958;28;20041;-70
2022/09/13 06:47:39;;;;;;;4.35;3.67;;;26.50;47.60;;;;;;5011732;28;20064;-71
2022/09/13 06:50:07;;;;;;;3.00;2.17;;;26.40;47.90;;;;;;5011043;28;20038;-70
2022/09/13 06:52:33;;;;;;;4.28;3.88;;;26.40;52.80;;;;;;5011214;28;20523;-69
2022/09/13 06:54:59;;;;;;;4.45;3.47;;;26.40;52.30;;;;;;5010639;28;20122;-70
2022/09/13 06:57:28;;;;;;;4.15;3.75;;;26.40;50.70;;;;;;5006657;28;20046;-68
2022/09/13 06:59:54;;;;;;;5.55;4.15;;;26.40;47.90;;;;;;5008632;28;20073;-69
2022/09/13 07:02:20;;;;;;;6.22;4.82;;;26.40;48.00;;;;;;5010059;28;20037;-70
2022/09/13 07:04:46;;;;;;;3.38;2.88;;;26.40;49.30;;;;;;5011137;28;20034;-68
2022/09/13 07:07:12;;;;;;;4.13;3.45;;;26.30;49.50;;;;;;5011343;28;20293;-70
2022/09/13 07:09:38;;;;;;;5.72;3.20;;;26.20;50.60;;;;;;5009445;28;20036;-68
2022/09/13 07:12:06;;;;;;;4.93;4.20;;;26.20;51.10;;;;;;5013109;28;20164;-69
2022/09/13 07:14:31;;;;;;;5.50;3.25;;;26.20;46.50;;;;;;5012498;28;20450;-70
2022/09/13 07:16:59;;;;;;;2.85;2.53;;;26.20;51.50;;;;;;5013692;28;20128;-71
2022/09/13 07:19:26;;;;;;;6.55;3.60;;;26.10;49.20;;;;;;5012163;28;20053;-75
2022/09/13 07:21:54;;;;;;;3.05;2.75;;;26.10;48.40;;;;;;5012976;28;20064;-73
2022/09/13 07:24:20;;;;;;;4.53;2.53;;;26.10;49.00;;;;;;5012761;28;20034;-74
2022/09/13 07:26:47;;;;;;;4.47;3.92;;;25.90;51.40;;;;;;5013494;28;20383;-73
2022/09/13 07:29:21;;;;;;;3.30;2.88;;;26.00;47.80;;;;;;5013508;28;20034;-74
2022/09/13 07:31:53;;;;;;;5.72;3.22;;;26.00;49.60;;;;;;5012383;28;20045;-74
2022/09/13 07:34:21;;;;;;;3.80;3.50;;;25.90;51.40;;;;;;5012343;28;20042;-73
2022/09/13 07:36:48;;;;;;;3.13;2.83;;;26.00;48.50;;;;;;5013433;28;20033;-74
2022/09/13 07:39:16;;;;;;;5.90;3.17;;;25.90;51.80;;;;;;5013551;28;20026;-73
2022/09/13 07:41:42;;;;;;;3.78;2.20;;;25.90;51.00;;;;;;5012187;28;20041;-74
2022/09/13 07:44:10;;;;;;;2.50;2.13;;;25.90;54.20;;;;;;5009569;28;20101;-76
2022/09/13 07:46:40;;;;;;;4.45;2.17;;;26.20;54.70;;;;;;5009230;28;20029;-71
2022/09/13 07:49:07;;;;;;;3.88;2.85;;;26.20;54.30;;;;;;5010343;28;20100;-70
2022/09/13 07:51:35;;;;;;;3.35;2.75;;;26.50;53.80;;;;;;5009855;28;20073;-73
2022/09/13 07:54:04;;;;;;;2.33;2.13;;;26.40;52.70;;;;;;5010338;28;20048;-73
2022/09/13 07:56:32;;;;;;;13.48;2.42;;;26.50;52.60;;;;;;5009776;28;20037;-72
2022/09/13 07:59:00;;;;;;;1.30;1.20;;;26.50;52.70;;;;;;5010678;28;20120;-72
2022/09/13 08:01:33;;;;;;;1.92;1.75;;;26.70;52.50;;;;;;5010307;28;20052;-70
2022/09/13 08:04:01;;;;;;;2.03;1.85;;;26.60;52.80;;;;;;5010722;28;20037;-71
2022/09/13 08:06:30;;;;;;;2.53;1.80;;;26.60;52.80;;;;;;5010525;28;20064;-71
2022/09/13 08:08:56;;;;;;;1.63;1.50;;;26.50;52.60;;;;;;5009646;28;20749;-73
2022/09/13 08:11:27;;;;;;;2.47;1.58;;;26.60;52.90;;;;;;5009472;28;20030;-71
2022/09/13 08:13:53;;;;;;;2.35;1.63;;;26.60;52.90;;;;;;5004967;28;20038;-71
2022/09/13 08:16:21;;;;;;;2.50;1.30;;;26.60;52.80;;;;;;5009211;28;20401;-72
2022/09/13 08:18:50;;;;;;;5.18;1.63;;;26.60;52.80;;;;;;5024439;28;20466;-70
2022/09/13 08:21:16;;;;;;;1.38;0.93;;;26.60;53.00;;;;;;5028201;28;20048;-71
2022/09/13 08:23:42;;;;;;;3.30;2.00;;;26.60;52.90;;;;;;5031519;28;20040;-75
2022/09/13 08:26:09;;;;;;;11.45;1.65;;;26.60;52.50;;;;;;5029730;28;20514;-68
2022/09/13 08:28:37;;;;;;;0.95;0.75;;;26.60;51.90;;;;;;5029627;28;20054;-75
2022/09/13 08:31:09;;;;;;;2.80;1.77;;;26.60;51.60;;;;;;5014430;28;20034;-72
2022/09/13 08:33:36;;;;;;;161.60;65.40;;;26.80;53.40;;;;;;5009551;28;20026;-75
2022/09/13 08:36:03;;;;;;;16.38;7.22;;;27.30;53.40;;;;;;5009210;28;20040;-74
2022/09/13 08:38:30;;;;;;;164.07;39.45;;;27.30;49.10;;;;;;5009598;28;20077;-73
2022/09/13 08:40:58;;;;;;;57.63;20.33;;;27.40;48.30;;;;;;5009072;28;20034;-74
2022/09/13 08:43:45;;;;;;;14.30;5.80;;;27.20;53.10;;;;;;5009112;28;20050;-72
2022/09/13 08:46:33;;;;;;;20.38;6.40;;;27.30;50.80;;;;;;5009211;28;20046;-72
2022/09/13 08:49:05;;;;;;;7.85;4.32;;;27.40;51.70;;;;;;5008269;28;20442;-71
2022/09/13 08:51:41;;;;;;;8.18;4.55;;;27.40;50.90;;;;;;5008976;28;20487;-75
2022/09/13 08:54:11;;;;;;;3.53;3.00;;;27.30;50.00;;;;;;5009191;28;20450;-72
2022/09/13 08:56:58;;;;;;;4.32;2.97;;;27.30;50.00;;;;;;5009417;28;20065;-73
2022/09/13 08:59:39;;;;;;;2.90;2.55;;;27.30;49.60;;;;;;5009334;28;20128;-72
2022/09/13 09:02:20;;;;;;;4.05;2.47;;;27.40;49.50;;;;;;5009051;28;20037;-74
2022/09/13 09:04:51;;;;;;;6.47;2.22;;;27.50;49.40;;;;;;5011217;28;20491;-72
2022/09/13 09:07:23;;;;;;;3.10;1.77;;;27.40;49.10;;;;;;5023392;28;20061;-72
2022/09/13 09:09:57;;;;;;;5.30;3.25;;;27.30;48.90;;;;;;5019667;28;20034;-76
2022/09/13 09:12:37;;;;;;;2.70;2.50;;;27.50;48.60;;;;;;5026423;28;20088;-75
2022/09/13 09:15:14;;;;;;;2.00;1.90;;;27.60;48.10;;;;;;5028454;28;20030;-73
2022/09/13 09:17:45;;;;;;;2.65;1.65;;;27.40;48.00;;;;;;5011474;28;20073;-72
2022/09/13 09:20:31;;;;;;;1.25;1.08;;;27.50;48.70;;;;;;5010606;28;20502;-70
2022/09/13 09:23:02;;;;;;;1.35;1.35;;;27.50;48.60;;;;;;5011057;28;20034;-75
2022/09/13 09:25:30;;;;;;;4.97;2.88;;;27.50;49.00;;;;;;5011700;28;20117;-73
2022/09/13 09:27:57;;;;;;;1.58;0.95;;;27.50;49.50;;;;;;5020110;28;20037;-71
2022/09/13 09:30:37;;;;;;;2.40;2.15;;;27.30;49.70;;;;;;5031242;28;20033;-72
2022/09/13 09:33:15;;;;;;;1.90;1.80;;;27.50;50.00;;;;;;5023611;28;20088;-74
2022/09/13 09:35:41;;;;;;;1.80;1.70;;;27.50;51.30;;;;;;5007883;28;20248;-75
2022/09/13 09:38:26;;;;;;;0.45;0.45;;;27.40;51.20;;;;;;5007897;28;20419;-70
2022/09/13 09:40:52;;;;;;;2.72;1.70;;;27.40;50.50;;;;;;4993107;28;20042;-74
2022/09/13 09:43:48;;;;;;;1.23;1.02;;;27.50;50.80;;;;;;5008600;28;20042;-70
2022/09/13 09:46:16;;;;;;;9.40;2.08;;;27.70;51.40;;;;;;4991578;28;20181;-74
2022/09/13 09:48:50;;;;;;;3.67;2.00;;;27.80;52.00;;;;;;5008393;28;20042;-73
2022/09/13 09:51:19;;;;;;;1.98;1.33;;;28.30;54.10;;;;;;5008322;28;20534;-75
2022/09/13 09:53:50;;;;;;;2.85;1.63;;;28.50;50.90;;;;;;5008936;28;20403;-70
2022/09/13 09:56:25;;;;;;;2.25;1.88;;;28.30;49.10;;;;;;5008708;28;20060;-72
2022/09/13 09:58:55;;;;;;;2.92;2.70;;;28.30;46.20;;;;;;5009049;28;20034;-71
2022/09/13 10:01:28;;;;;;;2.33;2.13;;;28.20;48.30;;;;;;5008497;28;20147;-70
2022/09/13 10:04:18;;;;;;;4.70;2.22;;;28.10;48.10;;;;;;5013066;28;20064;-72
2022/09/13 10:06:45;;;;;;;3.22;2.28;;;28.10;47.20;;;;;;4955419;28;20433;-71
2022/09/13 10:09:20;;;;;;;2.10;1.90;;;28.00;50.70;;;;;;4934541;29;20047;-72
2022/09/13 10:11:57;;;;;;;2.38;2.17;;;28.10;51.20;;;;;;4950415;29;20046;-72
2022/09/13 10:14:37;;;;;;;2.15;1.95;;;28.00;50.00;;;;;;4950348;29;20043;-71
2022/09/13 10:17:20;;;;;;;1.90;1.65;;;28.10;49.50;;;;;;4950478;29;20091;-70
2022/09/13 10:19:56;;;;;;;;;;;28.00;48.70;;;;;;4950846;29;20499;-70
2022/09/13 10:22:23;;;;;;;2.47;2.28;;;27.90;48.90;;;;;;4948291;29;20418;-72
2022/09/13 10:24:49;;;;;;;3.13;2.70;;;27.90;49.20;;;;;;4948387;29;20404;-71
2022/09/13 10:27:27;;;;;;;2.55;2.30;;;27.70;48.90;;;;;;4952650;28;20039;-71
2022/09/13 10:29:58;;;;;;;5.95;2.35;;;27.90;49.20;;;;;;4969423;28;20042;-73
2022/09/13 10:32:26;;;;;;;4.07;2.65;;;27.90;49.30;;;;;;4936675;28;20046;-71
2022/09/13 10:34:54;;;;;;;2.13;1.77;;;27.90;48.50;;;;;;4950069;29;20053;-71
2022/09/13 10:37:30;;;;;;;2.40;2.20;;;27.80;49.40;;;;;;4950416;29;20472;-70
2022/09/13 10:40:02;;;;;;;4.03;2.30;;;27.80;49.40;;;;;;4950195;29;20043;-71
2022/09/13 10:42:30;;;;;;;2.45;1.98;;;27.80;49.60;;;;;;4950106;29;20039;-70
2022/09/13 10:45:02;;;;;;;2.30;2.10;;;27.80;49.80;;;;;;4994323;28;20114;-70
2022/09/13 10:47:38;;;;;;;1.67;1.58;;;27.90;49.80;;;;;;4993916;28;20040;-73
2022/09/13 10:50:24;;;;;;;2.67;1.88;;;27.70;50.10;;;;;;4994903;28;20089;-72
2022/09/13 10:52:54;;;;;;;1.17;1.00;;;27.80;50.10;;;;;;4994898;28;20125;-73
2022/09/13 10:55:25;;;;;;;1.70;1.52;;;27.70;50.30;;;;;;4994519;28;20041;-71
2022/09/13 10:57:53;;;;;;;0.75;0.75;;;27.80;52.50;;;;;;4995234;28;20034;-72
2022/09/13 11:00:20;;;;;;;3.03;1.10;;;27.60;49.80;;;;;;4994295;28;20058;-72
2022/09/13 11:02:55;;;;;;;1.63;1.52;;;27.80;49.10;;;;;;4994943;28;20027;-71
2022/09/13 11:05:31;;;;;;;16.60;1.80;;;27.50;49.00;;;;;;5005884;28;20045;-72
2022/09/13 11:08:15;;;;;;;1.98;1.52;;;27.60;48.90;;;;;;5013770;28;20030;-71
2022/09/13 11:11:00;;;;;;;0.52;0.52;;;27.60;48.60;;;;;;5013506;28;20456;-70
2022/09/13 11:14:09;;;;;;;1.50;1.40;;;27.60;48.90;;;;;;5012964;28;20431;-72
2022/09/13 11:16:40;;;;;;;2.65;1.67;;;27.50;48.90;;;;;;4969299;28;20042;-71
2022/09/13 11:19:21;;;;;;;2.70;2.08;;;27.50;48.90;;;;;;4952684;29;20058;-72
2022/09/13 11:21:57;;;;;;;1.58;1.48;;;27.50;48.80;;;;;;4961158;28;20035;-72
2022/09/13 11:25:00;;;;;;;1.75;1.38;;;27.50;48.90;;;;;;4972150;28;20046;-72
2022/09/13 11:27:32;;;;;;;;;;;27.60;48.60;;;;;;4972593;28;20042;-74
2022/09/13 11:30:00;;;;;;;2.40;1.65;;;27.50;48.30;;;;;;4965936;28;19914;-71
2022/09/13 11:32:41;;;;;;;1.23;1.13;;;27.60;48.20;;;;;;4952118;29;20138;-72
2022/09/13 11:35:35;;;;;;;1.90;0.90;;;27.50;47.90;;;;;;4952337;29;20047;-73
2022/09/13 11:38:31;;;;;;;4.15;1.45;;;27.50;47.90;;;;;;4952739;29;20050;-72
2022/09/13 11:41:15;;;;;;;1.35;1.25;;;27.40;47.80;;;;;;4952558;29;20079;-71
2022/09/13 11:44:14;;;;;;;1.23;1.23;;;27.50;47.30;;;;;;4952795;29;20251;-71
2022/09/13 11:46:54;;;;;;;1.70;1.60;;;27.50;47.40;;;;;;4955495;28;20076;-75
2022/09/13 11:49:26;;;;;;;0.55;0.55;;;27.50;47.20;;;;;;4971764;28;20511;-72
2022/09/13 11:52:01;;;;;;;1.65;1.55;;;27.50;46.80;;;;;;4967246;28;20027;-73
2022/09/13 11:54:54;;;;;;;1.58;1.48;;;27.40;46.90;;;;;;4981714;28;20169;-71
2022/09/13 11:57:28;;;;;;;1.73;1.63;;;27.30;47.50;;;;;;4994082;28;20133;-71
2022/09/13 12:00:01;;;;;;;1.60;1.50;;;27.40;47.60;;;;;;4993713;28;20069;-73
2022/09/13 12:03:04;;;;;;;4.70;1.73;;;27.20;47.60;;;;;;5000811;28;20034;-73
2022/09/13 12:05:38;;;;;;;0.95;0.95;;;27.20;47.50;;;;;;5008777;28;20034;-72
2022/09/13 12:08:16;;;;;;;1.75;1.20;;;27.20;48.10;;;;;;5012266;28;20033;-72
2022/09/13 12:11:01;;;;;;;1.75;1.55;;;27.30;47.80;;;;;;5011822;28;20099;-73
2022/09/13 12:13:33;;;;;;;1.30;1.20;;;27.20;45.40;;;;;;5010275;28;20165;-73
2022/09/13 12:16:04;;;;;;;1.05;1.05;;;27.40;44.30;;;;;;5009339;28;20034;-71
2022/09/13 12:18:38;;;;;;;2.55;1.90;;;27.60;44.70;;;;;;5011133;28;20052;-73
2022/09/13 12:21:09;;;;;;;1.33;1.23;;;27.40;44.40;;;;;;5011097;28;20033;-75
2022/09/13 12:23:38;;;;;;;0.75;0.75;;;27.50;45.00;;;;;;5008977;28;20041;-75
2022/09/13 12:26:17;;;;;;;0.73;0.73;;;27.20;45.30;;;;;;5010186;28;20034;-74
2022/09/13 12:28:57;;;;;;;0.50;0.50;;;27.30;45.10;;;;;;5007155;28;20034;-74
2022/09/13 12:31:30;;;;;;;0.85;0.85;;;27.30;44.50;;;;;;5008902;28;20037;-76
2022/09/13 12:33:57;;;;;;;2.00;1.90;;;27.30;43.60;;;;;;5008798;28;20188;-76
2022/09/13 12:36:49;;;;;;;1.20;1.08;;;27.20;43.90;;;;;;5011140;28;20579;-74
2022/09/13 12:39:26;;;;;;;1.95;1.80;;;27.30;44.40;;;;;;5010928;28;20104;-73
2022/09/13 12:42:37;;;;;;;1.98;1.88;;;27.30;43.30;;;;;;5009461;28;20046;-70
2022/09/13 12:45:32;;;;;;;2.20;2.00;;;27.10;42.90;;;;;;4980057;28;20096;-72
2022/09/13 12:48:21;;;;;;;2.13;1.95;;;27.10;44.10;;;;;;4986387;28;20051;-70
2022/09/13 12:51:13;;;;;;;0.90;0.90;;;27.10;44.70;;;;;;4982683;28;20044;-71
2022/09/13 12:54:14;;;;;;;2.22;2.03;;;27.20;45.20;;;;;;4980830;28;20063;-71
2022/09/13 12:57:00;;;;;;;2.08;1.80;;;27.00;44.70;;;;;;4969526;28;20758;-74
2022/09/13 12:59:34;;;;;;;2.17;1.98;;;27.00;44.40;;;;;;4890952;29;20116;-72
2022/09/13 13:02:03;;;;;;;2.15;1.38;;;27.00;43.90;;;;;;4877797;29;20460;-74
2022/09/13 13:04:34;;;;;;;1.45;1.35;;;26.90;43.70;;;;;;4893171;29;20053;-75
2022/09/13 13:07:07;;;;;;;0.73;0.70;;;27.00;45.10;;;;;;4893349;29;20092;-72
2022/09/13 13:09:41;;;;;;;1.33;1.20;;;26.90;44.80;;;;;;4893034;29;20081;-70
2022/09/13 13:12:27;;;;;;;2.10;1.50;;;27.00;45.50;;;;;;4892908;29;20071;-70
2022/09/13 13:14:55;;;;;;;1.20;0.95;;;27.00;44.70;;;;;;4892876;29;20031;-68
2022/09/13 13:17:46;;;;;;;1.60;1.50;;;27.00;46.40;;;;;;4892997;29;20052;-71
2022/09/13 13:20:56;;;;;;;3.05;1.80;;;26.90;44.20;;;;;;4935523;29;20058;-70